Time;durP1;ratioP1;P1;durP2;ratioP2;P2;SDS_P1;SDS_P2;PMS_P1;PMS_P2;Temp;Humidity;BMP_temperature;BMP_pressure;BME280_temperature;BME280_humidity;BME280_pressure;Samples;Min_cycle;Max_cycle;Signal;HPM_P1;HPM_P2
2021/11/22 00:00:59;;;;;;;5.50;3.30;;;;;;;;;;5017319;28;20174;-54
2021/11/22 00:03:26;;;;;;;9.00;2.97;;;;;;;;;;5010477;28;20281;-52
2021/11/22 00:05:53;;;;;;;4.13;3.20;;;;;;;;;;5024292;28;20177;-53
2021/11/22 00:08:19;;;;;;;5.53;3.03;;;;;;;;;;5026167;28;20539;-52
2021/11/22 00:10:45;;;;;;;3.70;2.97;;;;;;;;;;5018867;28;20220;-53
2021/11/22 00:13:11;;;;;;;6.03;3.30;;;;;;;;;;5027276;28;20197;-53
2021/11/22 00:15:37;;;;;;;4.00;2.87;;;;;;;;;;5025166;28;20282;-52
2021/11/22 00:18:03;;;;;;;6.73;2.67;;;;;;;;;;5026739;28;20474;-52
2021/11/22 00:20:30;;;;;;;5.53;3.20;;;;;;;;;;5024203;28;20186;-51
2021/11/22 00:22:56;;;;;;;6.33;2.80;;;;;;;;;;5023026;28;20656;-53
2021/11/22 00:25:22;;;;;;;6.40;2.57;;;;;;;;;;5034619;28;20186;-52
2021/11/22 00:27:49;;;;;;;6.70;3.87;;;;;;;;;;5027146;28;20182;-52
2021/11/22 00:30:15;;;;;;;6.63;2.80;;;;;;;;;;5027575;28;20205;-52
2021/11/22 00:32:45;;;;;;;5.27;2.50;;;;;;;;;;5021604;28;20186;-53
2021/11/22 00:35:12;;;;;;;5.13;2.93;;;;;;;;;;5027195;28;20180;-52
2021/11/22 00:37:40;;;;;;;5.93;2.87;;;;;;;;;;5006874;28;20601;-53
2021/11/22 00:40:08;;;;;;;4.77;2.57;;;;;;;;;;5012691;28;20192;-52
2021/11/22 00:42:34;;;;;;;4.97;2.67;;;;;;;;;;5025735;28;20194;-54
2021/11/22 00:45:00;;;;;;;4.73;3.10;;;;;;;;;;5024107;28;20185;-53
2021/11/22 00:47:26;;;;;;;4.77;2.73;;;;;;;;;;5014272;28;20324;-52
2021/11/22 00:49:52;;;;;;;5.63;3.13;;;;;;;;;;5024039;28;20565;-52
2021/11/22 00:52:19;;;;;;;4.67;2.50;;;;;;;;;;5034176;28;20185;-54
2021/11/22 00:54:45;;;;;;;4.47;2.47;;;;;;;;;;5031109;28;20188;-53
2021/11/22 00:57:11;;;;;;;4.37;2.60;;;;;;;;;;5030824;28;20209;-52
2021/11/22 00:59:38;;;;;;;6.80;2.70;;;;;;;;;;5023454;28;20182;-52
2021/11/22 01:02:04;;;;;;;3.97;2.90;;;;;;;;;;5024817;28;20189;-52
2021/11/22 01:04:30;;;;;;;6.40;2.50;;;;;;;;;;5025901;28;20189;-53
2021/11/22 01:06:56;;;;;;;4.17;2.60;;;;;;;;;;5029044;28;20612;-53
2021/11/22 01:09:22;;;;;;;5.30;2.77;;;;;;;;;;5030256;28;20687;-52
2021/11/22 01:11:48;;;;;;;5.47;2.43;;;;;;;;;;5025452;28;20178;-52
2021/11/22 01:14:14;;;;;;;5.27;2.30;;;;;;;;;;5031259;28;20655;-51
2021/11/22 01:16:41;;;;;;;3.70;2.20;;;;;;;;;;5011660;28;20189;-53
2021/11/22 01:19:07;;;;;;;6.03;3.33;;;;;;;;;;5029675;28;20193;-52
2021/11/22 01:21:34;;;;;;;3.77;2.60;;;;;;;;;;5029860;28;20220;-52
2021/11/22 01:24:00;;;;;;;8.10;3.27;;;;;;;;;;5020064;28;20194;-53
2021/11/22 01:26:26;;;;;;;5.60;3.30;;;;;;;;;;5029578;28;20212;-53
2021/11/22 01:28:53;;;;;;;7.90;3.10;;;;;;;;;;5030536;28;20244;-52
2021/11/22 01:31:19;;;;;;;4.20;2.90;;;;;;;;;;5028166;28;20263;-52
2021/11/22 01:33:45;;;;;;;4.00;3.07;;;;;;;;;;5032169;28;20559;-53
2021/11/22 01:36:11;;;;;;;6.67;3.77;;;;;;;;;;5038918;28;20264;-52
2021/11/22 01:38:37;;;;;;;7.97;3.47;;;;;;;;;;5029093;28;20178;-53
2021/11/22 01:41:05;;;;;;;5.37;3.53;;;;;;;;;;5005588;28;20303;-53
2021/11/22 01:43:32;;;;;;;7.03;3.97;;;;;;;;;;5030620;28;20189;-52
2021/11/22 01:45:58;;;;;;;5.63;3.87;;;;;;;;;;5025927;28;20641;-51
2021/11/22 01:48:25;;;;;;;6.97;4.53;;;;;;;;;;5028800;28;20212;-52
2021/11/22 01:50:53;;;;;;;6.53;4.43;;;;;;;;;;5023101;28;20216;-53
2021/11/22 01:53:23;;;;;;;8.97;4.00;;;;;;;;;;5028992;28;20174;-53
2021/11/22 01:55:50;;;;;;;7.53;4.73;;;;;;;;;;5010481;28;20251;-54
2021/11/22 01:58:17;;;;;;;7.77;4.77;;;;;;;;;;5011158;28;20277;-53
2021/11/22 02:00:48;;;;;;;7.03;4.90;;;;;;;;;;5031011;28;20590;-53
2021/11/22 02:03:15;;;;;;;6.13;5.53;;;;;;;;;;5027176;28;20229;-53
2021/11/22 02:05:42;;;;;;;7.37;5.60;;;;;;;;;;5012007;28;20280;-53
2021/11/22 02:08:08;;;;;;;9.57;5.83;;;;;;;;;;5028260;28;20205;-52
2021/11/22 02:10:35;;;;;;;7.13;5.83;;;;;;;;;;5029801;28;20196;-52
2021/11/22 02:13:04;;;;;;;6.07;5.47;;;;;;;;;;5028448;28;20643;-52
2021/11/22 02:15:30;;;;;;;8.03;6.67;;;;;;;;;;5011212;28;20526;-54
2021/11/22 02:17:58;;;;;;;7.97;6.00;;;;;;;;;;5028795;28;20190;-51
2021/11/22 02:20:25;;;;;;;11.57;6.23;;;;;;;;;;5027707;28;20274;-50
2021/11/22 02:22:53;;;;;;;8.93;6.77;;;;;;;;;;5030033;28;20707;-52
2021/11/22 02:25:21;;;;;;;10.50;6.90;;;;;;;;;;5021479;28;20225;-51
2021/11/22 02:27:48;;;;;;;7.70;6.93;;;;;;;;;;5017708;28;20178;-51
2021/11/22 02:30:16;;;;;;;9.33;7.30;;;;;;;;;;5029050;28;20236;-50
2021/11/22 02:32:43;;;;;;;12.03;7.23;;;;;;;;;;4990925;28;20583;-52
2021/11/22 02:35:11;;;;;;;8.83;7.17;;;;;;;;;;5012062;28;20185;-52
2021/11/22 02:37:37;;;;;;;8.63;7.07;;;;;;;;;;5022776;28;20690;-51
2021/11/22 02:40:05;;;;;;;9.13;7.43;;;;;;;;;;5021425;28;20216;-51
2021/11/22 02:42:32;;;;;;;12.70;8.03;;;;;;;;;;5021846;28;20186;-52
2021/11/22 02:44:59;;;;;;;8.93;7.17;;;;;;;;;;5030078;28;20668;-51
2021/11/22 02:47:25;;;;;;;9.10;7.33;;;;;;;;;;5025746;28;20256;-51
2021/11/22 02:49:52;;;;;;;10.73;8.23;;;;;;;;;;5017582;28;20600;-52
2021/11/22 02:52:18;;;;;;;9.80;7.93;;;;;;;;;;5012482;28;20238;-51
2021/11/22 02:54:45;;;;;;;7.90;7.00;;;;;;;;;;5027846;28;20185;-52
2021/11/22 02:57:12;;;;;;;11.60;7.93;;;;;;;;;;5025299;28;20772;-53
2021/11/22 02:59:40;;;;;;;9.77;8.10;;;;;;;;;;5004933;28;20202;-52
2021/11/22 03:02:07;;;;;;;8.33;7.10;;;;;;;;;;5023630;28;20185;-52
2021/11/22 03:04:33;;;;;;;9.70;7.83;;;;;;;;;;5029057;28;20177;-52
2021/11/22 03:06:59;;;;;;;10.50;8.93;;;;;;;;;;5026991;28;20240;-51
2021/11/22 03:09:26;;;;;;;9.63;8.50;;;;;;;;;;5007582;28;20196;-52
2021/11/22 03:11:53;;;;;;;9.23;8.33;;;;;;;;;;5027331;28;20182;-51
2021/11/22 03:14:19;;;;;;;9.40;7.93;;;;;;;;;;5012876;28;20192;-51
2021/11/22 03:16:45;;;;;;;9.83;8.83;;;;;;;;;;5024578;28;20190;-51
2021/11/22 03:19:11;;;;;;;10.80;8.00;;;;;;;;;;5010337;28;20214;-51
2021/11/22 03:21:38;;;;;;;9.37;7.97;;;;;;;;;;5021548;28;20201;-52
2021/11/22 03:24:04;;;;;;;12.90;9.00;;;;;;;;;;5009396;28;20800;-51
2021/11/22 03:26:30;;;;;;;10.37;8.20;;;;;;;;;;5009567;28;20201;-52
2021/11/22 03:28:57;;;;;;;9.83;8.47;;;;;;;;;;5008867;28;20645;-51
2021/11/22 03:31:23;;;;;;;9.97;8.23;;;;;;;;;;5020318;28;20598;-52
2021/11/22 03:33:49;;;;;;;8.60;7.70;;;;;;;;;;5020827;28;20687;-51
2021/11/22 03:36:16;;;;;;;9.70;7.83;;;;;;;;;;5027491;28;20189;-50
2021/11/22 03:38:42;;;;;;;9.53;7.37;;;;;;;;;;5009660;28;20181;-54
2021/11/22 03:41:16;;;;;;;8.13;7.33;;;;;;;;;;5011960;28;20178;-50
2021/11/22 03:46:12;;;;;;;10.73;8.30;;;;;;;;;;5019473;28;20189;-52
2021/11/22 03:48:39;;;;;;;9.20;8.07;;;;;;;;;;5009654;28;20217;-51
2021/11/22 03:51:05;;;;;;;8.50;7.70;;;;;;;;;;5009830;28;20185;-52
2021/11/22 03:53:31;;;;;;;9.10;7.53;;;;;;;;;;5019593;28;20178;-52
2021/11/22 03:55:58;;;;;;;10.07;7.80;;;;;;;;;;5014826;28;20198;-52
2021/11/22 03:58:24;;;;;;;11.07;8.23;;;;;;;;;;5025636;28;20185;-52
2021/11/22 04:00:50;;;;;;;8.97;8.03;;;;;;;;;;5009246;28;20216;-54
2021/11/22 04:03:17;;;;;;;8.60;7.70;;;;;;;;;;5027539;28;20232;-52
2021/11/22 04:05:43;;;;;;;8.30;7.00;;;;;;;;;;5025223;28;20188;-53
2021/11/22 04:08:09;;;;;;;11.20;8.20;;;;;;;;;;5027940;28;20193;-51
2021/11/22 04:10:37;;;;;;;8.70;7.17;;;;;;;;;;4993258;28;20200;-52
2021/11/22 04:13:03;;;;;;;8.10;7.30;;;;;;;;;;5009995;28;20181;-53
2021/11/22 04:15:30;;;;;;;8.87;7.37;;;;;;;;;;5007989;28;20209;-53
2021/11/22 04:17:56;;;;;;;9.70;7.83;;;;;;;;;;5023902;28;20182;-52
2021/11/22 04:20:23;;;;;;;8.73;7.67;;;;;;;;;;5009460;28;20802;-53
2021/11/22 04:22:49;;;;;;;8.47;7.57;;;;;;;;;;5031675;28;20531;-52
2021/11/22 04:25:15;;;;;;;9.20;7.00;;;;;;;;;;5032018;28;20193;-52
2021/11/22 04:27:42;;;;;;;9.73;7.50;;;;;;;;;;5013471;28;20654;-52
2021/11/22 04:30:10;;;;;;;7.43;6.73;;;;;;;;;;5013909;28;20228;-53
2021/11/22 04:32:37;;;;;;;8.30;6.50;;;;;;;;;;5028530;28;20178;-52
2021/11/22 04:35:07;;;;;;;8.40;7.60;;;;;;;;;;4992531;28;20193;-54
2021/11/22 04:37:34;;;;;;;8.13;7.10;;;;;;;;;;5024652;28;20206;-53
2021/11/22 04:40:00;;;;;;;7.00;6.30;;;;;;;;;;5023160;28;20202;-52
2021/11/22 04:42:26;;;;;;;7.77;6.97;;;;;;;;;;5022721;28;20668;-52
2021/11/22 04:44:56;;;;;;;9.63;6.93;;;;;;;;;;5013662;28;20256;-54
2021/11/22 04:47:22;;;;;;;7.50;6.40;;;;;;;;;;5024472;28;20206;-53
2021/11/22 04:49:49;;;;;;;6.90;6.30;;;;;;;;;;5030079;28;20228;-54
2021/11/22 04:52:16;;;;;;;7.57;6.77;;;;;;;;;;5025280;28;20197;-52
2021/11/22 04:54:42;;;;;;;7.77;6.87;;;;;;;;;;5027050;28;20218;-52
2021/11/22 04:57:09;;;;;;;6.83;6.23;;;;;;;;;;5032684;28;20862;-53
2021/11/22 04:59:36;;;;;;;6.77;6.10;;;;;;;;;;4993509;28;20213;-53
2021/11/22 05:02:03;;;;;;;6.50;5.90;;;;;;;;;;5027369;28;20205;-52
2021/11/22 05:04:29;;;;;;;8.07;6.67;;;;;;;;;;5008558;28;20703;-53
2021/11/22 05:06:56;;;;;;;6.57;5.83;;;;;;;;;;5030012;28;20177;-52
2021/11/22 05:09:22;;;;;;;6.13;5.53;;;;;;;;;;5024503;28;20182;-52
2021/11/22 05:11:49;;;;;;;6.40;5.73;;;;;;;;;;5012953;28;20193;-54
2021/11/22 05:14:15;;;;;;;6.67;5.80;;;;;;;;;;5024968;28;20189;-52
2021/11/22 05:16:43;;;;;;;6.37;5.77;;;;;;;;;;5025681;28;20186;-53
2021/11/22 05:19:10;;;;;;;6.43;5.67;;;;;;;;;;5007479;28;20229;-52
2021/11/22 05:21:36;;;;;;;6.80;5.70;;;;;;;;;;5012019;28;20204;-53
2021/11/22 05:24:02;;;;;;;6.97;6.27;;;;;;;;;;5025526;28;20666;-52
2021/11/22 05:26:31;;;;;;;5.83;5.33;;;;;;;;;;5011370;28;20178;-53
2021/11/22 05:28:57;;;;;;;6.03;5.53;;;;;;;;;;5011997;28;20185;-53
2021/11/22 05:31:23;;;;;;;6.17;5.57;;;;;;;;;;5010190;28;20189;-53
2021/11/22 05:33:50;;;;;;;6.17;5.57;;;;;;;;;;5025175;28;20181;-53
2021/11/22 05:36:17;;;;;;;6.43;5.83;;;;;;;;;;5011289;28;20181;-53
2021/11/22 05:38:44;;;;;;;7.03;5.23;;;;;;;;;;5007984;28;20178;-52
2021/11/22 05:41:10;;;;;;;6.97;5.60;;;;;;;;;;5011040;28;20181;-53
2021/11/22 05:43:37;;;;;;;6.30;5.70;;;;;;;;;;5028851;28;20178;-53
2021/11/22 05:46:07;;;;;;;6.27;5.70;;;;;;;;;;5011508;28;20174;-51
2021/11/22 05:48:33;;;;;;;6.00;5.50;;;;;;;;;;4996993;28;20206;-51
2021/11/22 05:51:01;;;;;;;6.37;5.87;;;;;;;;;;4991496;28;20733;-53
2021/11/22 05:53:33;;;;;;;6.70;6.10;;;;;;;;;;4989601;28;20178;-53
2021/11/22 05:56:00;;;;;;;6.63;5.60;;;;;;;;;;4991262;28;20220;-53
2021/11/22 05:58:27;;;;;;;6.33;5.73;;;;;;;;;;4989319;28;20174;-52
2021/11/22 06:00:53;;;;;;;5.60;5.07;;;;;;;;;;4996624;28;20205;-53
2021/11/22 06:03:19;;;;;;;5.53;5.03;;;;;;;;;;4991908;28;20179;-53
2021/11/22 06:05:46;;;;;;;6.00;5.43;;;;;;;;;;4994383;28;20185;-52
2021/11/22 06:08:12;;;;;;;5.70;5.10;;;;;;;;;;4985991;28;20633;-51
2021/11/22 06:10:38;;;;;;;5.97;5.33;;;;;;;;;;4998635;28;20654;-51
2021/11/22 06:13:05;;;;;;;6.37;5.77;;;;;;;;;;5009597;28;20578;-52
2021/11/22 06:15:33;;;;;;;6.13;5.53;;;;;;;;;;5009614;28;20665;-51
2021/11/22 06:18:00;;;;;;;6.87;5.83;;;;;;;;;;5006988;28;20569;-52
2021/11/22 06:20:26;;;;;;;6.23;5.63;;;;;;;;;;4995664;28;20198;-52
2021/11/22 06:22:56;;;;;;;6.43;5.83;;;;;;;;;;4992055;28;20185;-51
2021/11/22 06:25:22;;;;;;;6.70;6.10;;;;;;;;;;4992045;28;20202;-52
2021/11/22 06:27:48;;;;;;;7.10;6.07;;;;;;;;;;4991998;28;20660;-52
2021/11/22 06:30:14;;;;;;;6.90;6.17;;;;;;;;;;4991656;28;20185;-52
2021/11/22 06:32:40;;;;;;;6.87;6.27;;;;;;;;;;5002820;28;20833;-52
2021/11/22 06:35:07;;;;;;;5.90;5.40;;;;;;;;;;4989883;28;20186;-52
2021/11/22 06:37:34;;;;;;;8.43;7.72;;;;;;;;;;5007480;28;20429;-50
2021/11/22 06:40:01;;;;;;;8.50;7.70;;;;;;;;;;4987100;28;20199;-52
2021/11/22 06:42:27;;;;;;;10.77;9.77;;;;;;;;;;4988310;28;20170;-51
2021/11/22 06:44:56;;;;;;;10.13;9.13;;;;;;;;;;4986270;28;20182;-51
2021/11/22 06:47:24;;;;;;;10.40;9.50;;;;;;;;;;4989984;28;20326;-51
2021/11/22 06:49:51;;;;;;;12.50;9.53;;;;;;;;;;4991636;28;20193;-53
2021/11/22 06:52:18;;;;;;;9.33;8.53;;;;;;;;;;5008268;28;20591;-51
2021/11/22 06:54:45;;;;;;;11.77;7.97;;;;;;;;;;4975793;28;20183;-50
2021/11/22 06:57:11;;;;;;;9.33;8.53;;;;;;;;;;4993830;28;21084;-52
2021/11/22 06:59:37;;;;;;;8.33;7.63;;;;;;;;;;4996755;28;20194;-49
2021/11/22 07:02:04;;;;;;;7.97;7.27;;;;;;;;;;4991899;28;20611;-50
2021/11/22 07:04:30;;;;;;;8.23;7.47;;;;;;;;;;5011490;28;20644;-53
2021/11/22 07:06:56;;;;;;;7.43;6.73;;;;;;;;;;5017642;28;20573;-52
2021/11/22 07:09:23;;;;;;;7.00;6.40;;;;;;;;;;5010554;28;20197;-52
2021/11/22 07:11:50;;;;;;;8.40;7.60;;;;;;;;;;4999161;28;20992;-52
2021/11/22 07:14:17;;;;;;;8.13;7.20;;;;;;;;;;4992046;28;20190;-53
2021/11/22 07:16:43;;;;;;;7.10;6.50;;;;;;;;;;4988536;28;20638;-52
2021/11/22 07:19:10;;;;;;;8.13;6.03;;;;;;;;;;5004331;28;20269;-52
2021/11/22 07:21:36;;;;;;;6.70;6.00;;;;;;;;;;5005971;28;20182;-54
2021/11/22 07:24:03;;;;;;;6.83;6.23;;;;;;;;;;5012529;28;20179;-53
2021/11/22 07:26:29;;;;;;;6.87;6.27;;;;;;;;;;4971829;28;20626;-53
2021/11/22 07:28:55;;;;;;;7.33;6.50;;;;;;;;;;5026065;28;20182;-51
2021/11/22 07:31:22;;;;;;;6.27;5.67;;;;;;;;;;5010266;28;20191;-51
2021/11/22 07:33:48;;;;;;;5.97;5.47;;;;;;;;;;5021598;28;20181;-51
2021/11/22 07:36:14;;;;;;;6.00;5.50;;;;;;;;;;5004510;28;20178;-51
2021/11/22 07:38:40;;;;;;;6.77;6.07;;;;;;;;;;5021003;28;20188;-53
2021/11/22 07:41:06;;;;;;;6.67;6.07;;;;;;;;;;5001261;28;20219;-50
2021/11/22 07:43:32;;;;;;;7.77;6.97;;;;;;;;;;5013641;28;20433;-52
2021/11/22 07:45:59;;;;;;;7.17;6.57;;;;;;;;;;4980150;28;20441;-52
2021/11/22 07:48:26;;;;;;;7.17;6.53;;;;;;;;;;5016733;28;20252;-51
2021/11/22 07:50:53;;;;;;;7.87;7.17;;;;;;;;;;5015964;28;20186;-52
2021/11/22 07:53:19;;;;;;;8.63;7.83;;;;;;;;;;5040650;28;20185;-51
2021/11/22 07:55:47;;;;;;;8.70;7.90;;;;;;;;;;5013873;28;20218;-51
2021/11/22 07:58:13;;;;;;;8.23;7.43;;;;;;;;;;5020372;28;20221;-52
2021/11/22 08:00:40;;;;;;;8.73;7.83;;;;;;;;;;5026581;28;20208;-51
2021/11/22 08:03:06;;;;;;;9.07;8.17;;;;;;;;;;5026001;28;20188;-52
2021/11/22 08:05:33;;;;;;;8.53;7.70;;;;;;;;;;5033544;28;20234;-52
2021/11/22 08:08:00;;;;;;;8.63;7.43;;;;;;;;;;5010724;28;20189;-51
2021/11/22 08:10:31;;;;;;;8.77;7.87;;;;;;;;;;5027791;28;20198;-51
2021/11/22 08:13:02;;;;;;;9.47;8.47;;;;;;;;;;5010364;28;20269;-51
2021/11/22 08:15:29;;;;;;;8.87;8.07;;;;;;;;;;5009920;28;20178;-51
2021/11/22 08:17:58;;;;;;;9.83;8.83;;;;;;;;;;5027066;28;20231;-51
2021/11/22 08:20:24;;;;;;;9.17;8.10;;;;;;;;;;5028215;28;20217;-51
2021/11/22 08:22:51;;;;;;;9.33;8.43;;;;;;;;;;5009592;28;20684;-51
2021/11/22 08:25:23;;;;;;;12.47;9.17;;;;;;;;;;5028272;28;20200;-52
2021/11/22 08:27:53;;;;;;;10.53;9.53;;;;;;;;;;5031835;28;20236;-50
2021/11/22 08:30:19;;;;;;;10.37;9.47;;;;;;;;;;5027523;28;20236;-50
2021/11/22 08:32:48;;;;;;;10.03;8.90;;;;;;;;;;5026725;28;20212;-52
2021/11/22 08:35:15;;;;;;;9.53;8.67;;;;;;;;;;5023937;28;20193;-52
2021/11/22 08:37:42;;;;;;;10.67;9.30;;;;;;;;;;4993133;28;20193;-52
2021/11/22 08:40:10;;;;;;;10.50;9.00;;;;;;;;;;5010260;28;20197;-51
2021/11/22 08:42:36;;;;;;;9.77;8.87;;;;;;;;;;5028148;28;20699;-51
2021/11/22 08:45:03;;;;;;;10.63;8.87;;;;;;;;;;5010484;28;20208;-52
2021/11/22 08:47:30;;;;;;;11.33;9.20;;;;;;;;;;5008193;28;20222;-51
2021/11/22 08:49:56;;;;;;;9.03;8.20;;;;;;;;;;5028102;28;20190;-51
2021/11/22 08:52:23;;;;;;;9.87;8.97;;;;;;;;;;5009769;28;20629;-51
2021/11/22 08:54:50;;;;;;;9.37;8.40;;;;;;;;;;5028084;28;20257;-52
2021/11/22 08:57:17;;;;;;;9.13;7.93;;;;;;;;;;5021700;28;20209;-51
2021/11/22 08:59:43;;;;;;;10.47;9.07;;;;;;;;;;5027366;28;20798;-53
2021/11/22 09:02:10;;;;;;;9.80;8.13;;;;;;;;;;5025726;28;20615;-50
2021/11/22 09:04:36;;;;;;;8.73;7.93;;;;;;;;;;5017443;28;20182;-51
2021/11/22 09:07:03;;;;;;;8.90;8.00;;;;;;;;;;5027659;28;20232;-51
2021/11/22 09:09:29;;;;;;;8.53;7.73;;;;;;;;;;5030046;28;20649;-52
2021/11/22 09:11:56;;;;;;;10.43;8.03;;;;;;;;;;5014029;28;20233;-52
2021/11/22 09:14:22;;;;;;;8.73;7.93;;;;;;;;;;5012746;28;20190;-51
2021/11/22 09:16:49;;;;;;;9.23;7.70;;;;;;;;;;5009159;28;20189;-52
2021/11/22 09:19:15;;;;;;;9.97;8.17;;;;;;;;;;5041975;28;20208;-52
2021/11/22 09:21:42;;;;;;;8.00;7.30;;;;;;;;;;5030902;28;20204;-52
2021/11/22 09:24:08;;;;;;;7.93;7.20;;;;;;;;;;5011681;28;20182;-51
2021/11/22 09:26:35;;;;;;;9.73;8.40;;;;;;;;;;5013351;28;20248;-52
2021/11/22 09:29:02;;;;;;;9.90;9.00;;;;;;;;;;5027475;28;20360;-49
2021/11/22 09:31:28;;;;;;;8.83;7.83;;;;;;;;;;5011899;28;20398;-49
2021/11/22 09:33:55;;;;;;;10.00;8.17;;;;;;;;;;5012957;28;20243;-52
2021/11/22 09:36:21;;;;;;;9.20;8.30;;;;;;;;;;5025152;28;20198;-49
2021/11/22 09:38:48;;;;;;;9.67;8.80;;;;;;;;;;5026819;28;20695;-49
2021/11/22 09:41:15;;;;;;;9.33;8.37;;;;;;;;;;5012445;28;20654;-50
2021/11/22 09:43:42;;;;;;;10.53;8.50;;;;;;;;;;5012935;28;20811;-51
2021/11/22 09:46:09;;;;;;;10.40;8.50;;;;;;;;;;5029328;28;20213;-52
2021/11/22 09:48:35;;;;;;;10.00;9.00;;;;;;;;;;5011970;28;20722;-53
2021/11/22 09:51:02;;;;;;;10.13;9.17;;;;;;;;;;5030685;28;20603;-52
2021/11/22 09:53:28;;;;;;;9.13;8.13;;;;;;;;;;4996374;28;20204;-52
2021/11/22 09:55:55;;;;;;;9.73;7.83;;;;;;;;;;5012342;28;20240;-52
2021/11/22 09:58:22;;;;;;;10.90;8.57;;;;;;;;;;5029648;28;20660;-53
2021/11/22 10:00:50;;;;;;;9.33;8.53;;;;;;;;;;5028806;28;20255;-53
2021/11/22 10:03:21;;;;;;;10.23;9.10;;;;;;;;;;5011851;28;20560;-52
2021/11/22 10:05:47;;;;;;;11.10;9.13;;;;;;;;;;5011425;28;20208;-52
2021/11/22 10:08:15;;;;;;;9.93;8.93;;;;;;;;;;5012136;28;20664;-54
2021/11/22 10:10:44;;;;;;;11.07;9.97;;;;;;;;;;5030287;28;20671;-53
2021/11/22 10:13:29;;;;;;;10.70;9.60;;;;;;;;;;5023739;28;20186;-53
2021/11/22 10:16:15;;;;;;;9.67;8.77;;;;;;;;;;5011335;28;20192;-51
2021/11/22 10:18:46;;;;;;;10.67;9.57;;;;;;;;;;5002758;28;20668;-52
2021/11/22 10:21:14;;;;;;;10.93;9.83;;;;;;;;;;5012128;28;20208;-53
2021/11/22 10:23:42;;;;;;;9.53;8.63;;;;;;;;;;5011868;28;20231;-52
2021/11/22 10:26:10;;;;;;;9.53;8.53;;;;;;;;;;5030011;28;20166;-52
2021/11/22 10:28:45;;;;;;;9.97;8.30;;;;;;;;;;5029894;28;20178;-53
2021/11/22 10:31:14;;;;;;;9.10;8.17;;;;;;;;;;5017742;28;20225;-53
2021/11/22 10:33:41;;;;;;;11.20;8.50;;;;;;;;;;5027481;28;20207;-53
2021/11/22 10:36:09;;;;;;;8.20;7.50;;;;;;;;;;5011112;28;20217;-52
2021/11/22 10:38:39;;;;;;;7.40;6.70;;;;;;;;;;5011883;28;20201;-53
2021/11/22 10:41:07;;;;;;;8.20;7.40;;;;;;;;;;5029263;28;20232;-53
2021/11/22 10:43:38;;;;;;;7.93;7.23;;;;;;;;;;5021132;28;20198;-52
2021/11/22 10:46:08;;;;;;;8.87;8.17;;;;;;;;;;4994573;28;20183;-53
2021/11/22 10:48:35;;;;;;;8.43;7.63;;;;;;;;;;5028161;28;20221;-52
2021/11/22 10:51:01;;;;;;;7.90;7.17;;;;;;;;;;5027885;28;20181;-52
2021/11/22 10:53:32;;;;;;;8.63;6.80;;;;;;;;;;5027531;28;20181;-52
2021/11/22 10:55:58;;;;;;;7.10;6.40;;;;;;;;;;5004075;28;20206;-52
2021/11/22 10:58:37;;;;;;;6.27;5.33;;;;;;;;;;5021172;28;20744;-52
2021/11/22 11:01:14;;;;;;;5.90;5.40;;;;;;;;;;5001772;28;20264;-53
2021/11/22 11:03:40;;;;;;;5.43;4.83;;;;;;;;;;5032211;28;20174;-53
2021/11/22 11:06:06;;;;;;;5.50;4.97;;;;;;;;;;5020526;28;20672;-52
2021/11/22 11:08:35;;;;;;;6.07;5.20;;;;;;;;;;5006051;28;20608;-53
2021/11/22 11:11:08;;;;;;;4.53;4.13;;;;;;;;;;5011071;28;20186;-53
2021/11/22 11:13:47;;;;;;;4.70;4.30;;;;;;;;;;5028862;28;20580;-52
2021/11/22 11:16:15;;;;;;;4.57;3.97;;;;;;;;;;5009130;28;20185;-53
2021/11/22 11:18:41;;;;;;;3.97;3.57;;;;;;;;;;5015968;28;20182;-51
2021/11/22 11:21:08;;;;;;;8.07;4.33;;;;;;;;;;5028786;28;20206;-53
2021/11/22 11:23:36;;;;;;;3.87;3.57;;;;;;;;;;5009177;28;20236;-51
2021/11/22 11:26:02;;;;;;;3.83;3.53;;;;;;;;;;5020259;28;20586;-52
2021/11/22 11:28:30;;;;;;;3.60;3.30;;;;;;;;;;5029041;28;20182;-52
2021/11/22 11:30:56;;;;;;;4.43;3.73;;;;;;;;;;5025266;28;20419;-53
2021/11/22 11:33:22;;;;;;;6.20;3.53;;;;;;;;;;5016213;28;20178;-52
2021/11/22 11:35:49;;;;;;;4.43;3.97;;;;;;;;;;5006656;28;20181;-53
2021/11/22 11:38:24;;;;;;;4.77;3.93;;;;;;;;;;5020254;28;20578;-53
2021/11/22 11:40:53;;;;;;;4.27;3.83;;;;;;;;;;5028650;28;20209;-54
2021/11/22 11:43:34;;;;;;;5.70;3.80;;;;;;;;;;5000222;28;20182;-52
2021/11/22 11:46:10;;;;;;;7.37;3.17;;;;;;;;;;5002783;28;20170;-53
2021/11/22 11:48:55;;;;;;;4.53;3.53;;;;;;;;;;5027683;28;20252;-53
2021/11/22 11:51:30;;;;;;;8.30;3.23;;;;;;;;;;4994249;28;20201;-53
2021/11/22 11:54:15;;;;;;;3.03;2.73;;;;;;;;;;4994745;28;20182;-54
2021/11/22 11:56:46;;;;;;;3.80;2.73;;;;;;;;;;5021029;28;20205;-54
2021/11/22 11:59:51;;;;;;;2.83;2.63;;;;;;;;;;5026917;28;20182;-53
2021/11/22 12:02:24;;;;;;;2.60;2.40;;;;;;;;;;4984948;28;20661;-53
2021/11/22 12:04:59;;;;;;;2.00;1.80;;;;;;;;;;4987390;28;20670;-52
2021/11/22 12:07:29;;;;;;;4.10;2.40;;;;;;;;;;5010245;28;20185;-51
2021/11/22 12:10:13;;;;;;;1.90;1.70;;;;;;;;;;5029111;28;20182;-52
2021/11/22 12:12:39;;;;;;;2.27;2.07;;;;;;;;;;5010184;28;20553;-52
2021/11/22 12:15:11;;;;;;;4.73;2.13;;;;;;;;;;5020695;28;20637;-53
2021/11/22 12:17:37;;;;;;;2.87;1.53;;;;;;;;;;5027097;28;20181;-52
2021/11/22 12:20:36;;;;;;;2.53;1.77;;;;;;;;;;5028780;28;20302;-53
2021/11/22 12:23:06;;;;;;;1.70;1.60;;;;;;;;;;5005944;28;20276;-53
2021/11/22 12:25:44;;;;;;;2.30;2.03;;;;;;;;;;5028220;28;20592;-53
2021/11/22 12:28:23;;;;;;;2.23;1.70;;;;;;;;;;5010122;28;20186;-52
2021/11/22 12:30:54;;;;;;;1.50;1.40;;;;;;;;;;5027296;28;20185;-53
2021/11/22 12:33:20;;;;;;;3.00;1.90;;;;;;;;;;5027084;28;20569;-51
2021/11/22 12:35:48;;;;;;;2.00;1.60;;;;;;;;;;5026928;28;20662;-53
2021/11/22 12:38:20;;;;;;;4.87;2.00;;;;;;;;;;5021617;28;20249;-53
2021/11/22 12:40:47;;;;;;;1.80;1.70;;;;;;;;;;5029268;28;20208;-52
2021/11/22 12:43:14;;;;;;;2.00;1.80;;;;;;;;;;5012561;28;20922;-52
2021/11/22 12:45:59;;;;;;;2.10;1.50;;;;;;;;;;5031692;28;20224;-53
2021/11/22 12:48:26;;;;;;;2.70;1.87;;;;;;;;;;5030826;28;20233;-54
2021/11/22 12:50:56;;;;;;;2.60;1.50;;;;;;;;;;5038681;28;20224;-53
2021/11/22 12:53:22;;;;;;;2.37;1.60;;;;;;;;;;5023490;28;20373;-52
2021/11/22 12:55:49;;;;;;;1.43;1.33;;;;;;;;;;5013759;28;20205;-53
2021/11/22 12:58:22;;;;;;;3.30;1.90;;;;;;;;;;5030891;28;20177;-53
2021/11/22 13:00:49;;;;;;;1.93;1.60;;;;;;;;;;5031300;28;20222;-54
2021/11/22 13:03:19;;;;;;;1.80;1.50;;;;;;;;;;5030716;28;20165;-53
2021/11/22 13:06:15;;;;;;;1.60;1.23;;;;;;;;;;5030664;28;20648;-53
2021/11/22 13:08:42;;;;;;;2.70;1.60;;;;;;;;;;5020281;28;20297;-53
2021/11/22 13:11:16;;;;;;;2.40;1.63;;;;;;;;;;5030975;28;20673;-53
2021/11/22 13:13:46;;;;;;;2.37;1.67;;;;;;;;;;5008695;28;20228;-54
2021/11/22 13:16:13;;;;;;;2.37;1.40;;;;;;;;;;5021492;28;20532;-53
2021/11/22 13:18:53;;;;;;;2.63;1.50;;;;;;;;;;5012662;28;20621;-53
2021/11/22 13:21:27;;;;;;;2.73;2.53;;;;;;;;;;5029672;28;20248;-53
2021/11/22 13:23:55;;;;;;;1.47;1.37;;;;;;;;;;5030836;28;20224;-53
2021/11/22 13:26:28;;;;;;;2.30;1.67;;;;;;;;;;5010002;28;20231;-53
2021/11/22 13:29:05;;;;;;;3.53;1.50;;;;;;;;;;5012640;28;20181;-53
2021/11/22 13:31:34;;;;;;;1.73;1.63;;;;;;;;;;5027148;28;20212;-53
2021/11/22 13:34:03;;;;;;;2.63;1.40;;;;;;;;;;5031515;28;20218;-53
2021/11/22 13:36:34;;;;;;;1.73;1.23;;;;;;;;;;5028218;28;20181;-53
2021/11/22 13:39:11;;;;;;;2.00;1.30;;;;;;;;;;5025059;28;20269;-53
2021/11/22 13:41:37;;;;;;;2.23;1.53;;;;;;;;;;5008466;28;20178;-54
2021/11/22 13:44:07;;;;;;;1.57;1.47;;;;;;;;;;5004049;28;20178;-54
2021/11/22 13:46:39;;;;;;;2.67;1.50;;;;;;;;;;4989771;28;20621;-54
2021/11/22 13:49:07;;;;;;;4.13;2.00;;;;;;;;;;4986196;28;20596;-54
2021/11/22 13:51:35;;;;;;;3.40;1.77;;;;;;;;;;4999700;28;20676;-54
2021/11/22 13:54:03;;;;;;;3.20;1.73;;;;;;;;;;4985544;28;20198;-54
2021/11/22 13:56:35;;;;;;;1.93;1.73;;;;;;;;;;5001927;28;20282;-53
2021/11/22 13:59:03;;;;;;;2.50;1.67;;;;;;;;;;4984301;28;20221;-52
2021/11/22 14:01:32;;;;;;;2.87;1.80;;;;;;;;;;4984556;28;20206;-54
2021/11/22 14:04:02;;;;;;;2.07;1.30;;;;;;;;;;4984766;28;20281;-54
2021/11/22 14:06:32;;;;;;;2.57;1.60;;;;;;;;;;4984568;28;20282;-54
2021/11/22 14:08:58;;;;;;;1.90;1.60;;;;;;;;;;5004471;28;20233;-53
2021/11/22 14:11:26;;;;;;;4.83;1.60;;;;;;;;;;4997247;28;20186;-54
2021/11/22 14:13:56;;;;;;;2.63;1.43;;;;;;;;;;4991538;28;20186;-53
2021/11/22 14:16:27;;;;;;;3.17;1.77;;;;;;;;;;5010954;28;20229;-53
2021/11/22 14:18:54;;;;;;;1.70;1.57;;;;;;;;;;5010537;28;20217;-53
2021/11/22 14:21:30;;;;;;;1.57;1.47;;;;;;;;;;5008233;28;20194;-54
2021/11/22 14:24:13;;;;;;;1.70;1.50;;;;;;;;;;4994403;28;20811;-52
2021/11/22 14:26:41;;;;;;;2.70;1.57;;;;;;;;;;4992682;28;20699;-53
2021/11/22 14:29:15;;;;;;;3.10;1.47;;;;;;;;;;5008733;28;20186;-54
2021/11/22 14:31:46;;;;;;;1.77;1.63;;;;;;;;;;4998322;28;20699;-52
2021/11/22 14:34:13;;;;;;;2.83;1.53;;;;;;;;;;5006389;28;20206;-53
2021/11/22 14:36:42;;;;;;;2.10;1.63;;;;;;;;;;4990168;28;20559;-53
2021/11/22 14:39:09;;;;;;;1.93;1.67;;;;;;;;;;5009994;28;20177;-54
2021/11/22 14:41:42;;;;;;;2.33;1.60;;;;;;;;;;5008738;28;20618;-52
2021/11/22 14:44:09;;;;;;;2.03;1.67;;;;;;;;;;5010050;28;20617;-53
2021/11/22 14:46:38;;;;;;;1.93;1.60;;;;;;;;;;5006568;28;20521;-52
2021/11/22 14:49:05;;;;;;;1.90;1.47;;;;;;;;;;5027464;28;20776;-53